Time;durP1;ratioP1;P1;durP2;ratioP2;P2;SDS_P1;SDS_P2;PMS_P1;PMS_P2;Temp;Humidity;BMP_temperature;BMP_pressure;BME280_temperature;BME280_humidity;BME280_pressure;Samples;Min_cycle;Max_cycle;Signal;HPM_P1;HPM_P2
2023/01/03 00:00:47;;;;;;;2.83;1.77;;;10.80;99.90;;;;;;5050138;28;20479;-77
2023/01/03 00:03:32;;;;;;;4.50;2.23;;;10.60;99.90;;;;;;5049117;28;20453;-77
2023/01/03 00:06:19;;;;;;;5.47;2.40;;;10.60;99.90;;;;;;5051130;28;20448;-77
2023/01/03 00:09:08;;;;;;;7.50;2.30;;;10.30;99.90;;;;;;5054524;28;20907;-77
2023/01/03 00:14:58;;;;;;;5.70;2.30;;;10.20;99.90;;;;;;5049168;28;20435;-77
2023/01/03 00:17:46;;;;;;;5.10;2.30;;;10.10;99.90;;;;;;5058064;28;20459;-74
2023/01/03 00:20:32;;;;;;;3.60;2.20;;;10.00;99.90;;;;;;5046254;28;20518;-76
2023/01/03 00:23:18;;;;;;;4.03;1.90;;;9.90;99.90;;;;;;5059314;28;20449;-74
2023/01/03 00:26:09;;;;;;;3.53;2.30;;;9.90;99.90;;;;;;5049916;28;20451;-76
2023/01/03 00:28:55;;;;;;;3.03;1.97;;;9.80;99.90;;;;;;5055669;28;20530;-76
2023/01/03 00:31:41;;;;;;;5.40;2.17;;;9.70;99.90;;;;;;5051846;28;20446;-77
2023/01/03 00:34:29;;;;;;;3.97;1.83;;;9.80;99.90;;;;;;5044380;28;20476;-77
2023/01/03 00:37:15;;;;;;;4.17;1.77;;;9.70;99.90;;;;;;5055040;28;20891;-77
2023/01/03 00:40:01;;;;;;;2.80;1.50;;;9.70;99.90;;;;;;5048351;28;20448;-74
2023/01/03 00:45:48;;;;;;;3.80;1.80;;;9.80;99.90;;;;;;5045023;28;20815;-77
2023/01/03 00:48:34;;;;;;;3.90;2.10;;;9.70;99.90;;;;;;5045928;28;20474;-77
2023/01/03 00:51:23;;;;;;;3.60;2.40;;;9.50;99.90;;;;;;5048119;28;20455;-77
2023/01/03 00:54:11;;;;;;;3.03;2.10;;;9.50;99.90;;;;;;5052222;28;20501;-77
2023/01/03 00:56:57;;;;;;;3.43;2.10;;;9.50;99.90;;;;;;5051902;28;20447;-77
2023/01/03 00:59:42;;;;;;;4.30;2.10;;;9.60;99.90;;;;;;5048892;28;20471;-73
2023/01/03 01:02:28;;;;;;;4.90;2.50;;;9.50;99.90;;;;;;5055401;28;20597;-77
2023/01/03 01:05:13;;;;;;;5.03;2.10;;;9.50;99.90;;;;;;5048377;28;20498;-76
2023/01/03 01:08:01;;;;;;;3.77;2.20;;;9.40;99.90;;;;;;5048365;28;20534;-76
2023/01/03 01:11:00;;;;;;;3.73;1.73;;;9.40;99.90;;;;;;5045771;28;20448;-76
2023/01/03 01:13:47;;;;;;;4.73;2.67;;;9.40;99.90;;;;;;5052899;28;20885;-74
2023/01/03 01:16:32;;;;;;;3.40;2.30;;;9.30;99.90;;;;;;5056869;28;20476;-74
2023/01/03 01:19:18;;;;;;;3.63;2.30;;;9.30;99.90;;;;;;5035295;28;20458;-74
2023/01/03 01:22:05;;;;;;;4.00;2.50;;;9.20;99.90;;;;;;5045606;28;20455;-74
2023/01/03 01:24:51;;;;;;;2.73;2.10;;;9.10;99.90;;;;;;5050377;28;20538;-74
2023/01/03 01:27:37;;;;;;;3.20;2.17;;;9.00;99.90;;;;;;5047085;28;20447;-74
2023/01/03 01:30:23;;;;;;;3.67;2.43;;;8.90;99.90;;;;;;5048628;28;20434;-74
2023/01/03 01:33:08;;;;;;;3.87;2.40;;;8.70;99.90;;;;;;5060204;28;20958;-75
2023/01/03 01:35:54;;;;;;;3.80;2.30;;;8.70;99.90;;;;;;5048060;28;20508;-75
2023/01/03 01:38:40;;;;;;;6.43;2.50;;;8.70;99.90;;;;;;5052826;28;20549;-75
2023/01/03 01:44:50;;;;;;;5.30;2.90;;;8.70;99.90;;;;;;5020516;28;20996;-74
2023/01/03 01:47:41;;;;;;;3.20;2.23;;;8.80;99.90;;;;;;5053705;28;20447;-74
2023/01/03 01:50:33;;;;;;;5.03;2.53;;;8.60;99.90;;;;;;5042956;28;21027;-74
2023/01/03 01:53:21;;;;;;;5.67;2.40;;;8.70;99.90;;;;;;5050789;28;20502;-74
2023/01/03 01:56:11;;;;;;;6.93;2.73;;;8.70;99.90;;;;;;5047671;28;20812;-74
2023/01/03 01:58:59;;;;;;;4.10;2.77;;;8.60;99.90;;;;;;5049345;28;20478;-74
2023/01/03 02:01:46;;;;;;;3.27;2.47;;;8.60;99.90;;;;;;5046896;28;20958;-74
2023/01/03 02:04:35;;;;;;;3.63;2.70;;;8.60;99.90;;;;;;5055021;28;20602;-74
2023/01/03 02:07:22;;;;;;;6.33;2.97;;;8.50;99.90;;;;;;5047371;28;21218;-74
2023/01/03 02:10:09;;;;;;;3.37;2.77;;;8.40;99.90;;;;;;5045694;28;20450;-74
2023/01/03 02:13:06;;;;;;;5.83;2.43;;;8.50;99.90;;;;;;5045942;28;20846;-74
2023/01/03 02:16:16;;;;;;;7.50;2.80;;;8.60;99.90;;;;;;5052313;28;20505;-74
2023/01/03 02:19:22;;;;;;;4.03;2.90;;;8.80;99.90;;;;;;5045934;28;20443;-74
2023/01/03 02:22:35;;;;;;;3.50;2.40;;;8.70;99.90;;;;;;5050345;28;20444;-74
2023/01/03 02:25:56;;;;;;;3.87;2.53;;;8.90;99.90;;;;;;5045732;28;20470;-74
2023/01/03 02:29:27;;;;;;;3.17;2.57;;;8.70;99.90;;;;;;5042569;28;20496;-74
2023/01/03 02:32:16;;;;;;;3.13;2.43;;;8.70;99.90;;;;;;5045629;28;20956;-74
2023/01/03 02:35:08;;;;;;;4.13;2.60;;;8.50;99.90;;;;;;5050861;28;20952;-74
2023/01/03 02:38:04;;;;;;;4.30;3.00;;;8.40;99.90;;;;;;5047528;28;20576;-74
2023/01/03 02:40:55;;;;;;;3.57;2.50;;;8.30;99.90;;;;;;5054747;28;20434;-74
2023/01/03 02:43:46;;;;;;;4.27;2.83;;;8.30;99.90;;;;;;5053450;28;20501;-74
2023/01/03 02:46:39;;;;;;;4.80;2.87;;;8.20;99.90;;;;;;5049692;28;20784;-74
2023/01/03 02:49:30;;;;;;;6.43;2.97;;;8.10;99.90;;;;;;5048418;28;20529;-74
2023/01/03 02:52:19;;;;;;;4.20;3.30;;;8.10;99.90;;;;;;5049746;28;20528;-74
2023/01/03 02:55:10;;;;;;;6.30;3.33;;;8.20;99.90;;;;;;5052163;28;20442;-74
2023/01/03 02:58:00;;;;;;;4.23;3.07;;;8.40;99.90;;;;;;5057061;28;20455;-74
2023/01/03 03:00:50;;;;;;;3.33;2.50;;;8.50;99.90;;;;;;5053198;28;20638;-74
2023/01/03 03:03:38;;;;;;;6.00;3.13;;;8.60;99.90;;;;;;5046635;28;20479;-74
2023/01/03 03:06:29;;;;;;;4.73;3.10;;;8.60;99.90;;;;;;5051086;28;20799;-75
2023/01/03 03:09:15;;;;;;;6.57;3.50;;;8.70;99.90;;;;;;5042942;28;20454;-74
2023/01/03 03:15:10;;;;;;;6.47;3.23;;;8.80;99.90;;;;;;5050955;28;20439;-74
2023/01/03 03:18:02;;;;;;;3.37;2.60;;;8.90;99.90;;;;;;5049338;28;20474;-75
2023/01/03 03:26:59;;;;;;;4.37;2.83;;;9.00;99.90;;;;;;5055228;28;20504;-74
2023/01/03 03:29:44;;;;;;;4.17;3.20;;;9.00;99.90;;;;;;5045870;28;20492;-74
2023/01/03 03:32:33;;;;;;;3.40;2.80;;;9.00;99.90;;;;;;5052842;28;20919;-74
2023/01/03 03:35:23;;;;;;;10.57;3.43;;;8.90;99.90;;;;;;5052227;28;20436;-75
2023/01/03 03:38:13;;;;;;;7.43;3.90;;;9.00;99.90;;;;;;5048489;28;20443;-74
2023/01/03 03:47:30;;;;;;;4.00;2.60;;;9.00;99.90;;;;;;5047598;28;20454;-74
2023/01/03 03:50:24;;;;;;;4.97;3.00;;;9.20;99.90;;;;;;5048061;28;20444;-75
2023/01/03 03:53:11;;;;;;;4.47;3.13;;;9.10;99.90;;;;;;5056316;28;20609;-74
2023/01/03 03:56:01;;;;;;;9.20;3.30;;;9.20;99.90;;;;;;5049769;28;20455;-74
2023/01/03 03:58:52;;;;;;;5.40;3.07;;;9.20;99.90;;;;;;5047120;28;20448;-74
2023/01/03 04:01:40;;;;;;;7.97;3.10;;;9.30;99.90;;;;;;5063605;28;20451;-74
2023/01/03 04:04:32;;;;;;;8.97;2.73;;;9.20;99.90;;;;;;5049749;28;20491;-74
2023/01/03 04:07:17;;;;;;;6.40;2.90;;;9.10;99.90;;;;;;5050213;28;20923;-74
2023/01/03 04:10:04;;;;;;;3.33;2.60;;;9.00;99.90;;;;;;5049482;28;20477;-74
2023/01/03 04:12:51;;;;;;;6.23;3.20;;;8.90;99.90;;;;;;5053246;28;20446;-74
2023/01/03 04:15:37;;;;;;;3.70;3.10;;;8.60;99.90;;;;;;5051100;28;20489;-75
2023/01/03 04:18:23;;;;;;;4.40;2.93;;;8.60;99.90;;;;;;5045983;28;20925;-74
2023/01/03 04:21:09;;;;;;;4.00;2.40;;;8.60;99.90;;;;;;5050077;28;20836;-74
2023/01/03 04:23:55;;;;;;;5.63;2.53;;;8.60;99.90;;;;;;5049343;28;20470;-74
2023/01/03 04:26:40;;;;;;;4.60;2.93;;;8.50;99.90;;;;;;5052192;28;20447;-74
2023/01/03 04:29:28;;;;;;;4.93;2.70;;;8.50;99.90;;;;;;5044854;28;20897;-75
2023/01/03 04:32:13;;;;;;;4.03;2.70;;;8.40;99.90;;;;;;5054259;28;20992;-74
2023/01/03 04:34:59;;;;;;;3.40;2.70;;;8.40;99.90;;;;;;5053826;28;20959;-75
2023/01/03 04:37:45;;;;;;;5.00;2.70;;;8.40;99.90;;;;;;5045646;28;20968;-74
2023/01/03 04:40:30;;;;;;;3.60;2.63;;;8.40;99.90;;;;;;5051093;28;20554;-74
2023/01/03 04:46:21;;;;;;;3.17;2.70;;;8.30;99.90;;;;;;5049579;28;20517;-74
2023/01/03 04:49:08;;;;;;;6.50;2.90;;;8.30;99.90;;;;;;5047272;28;20442;-74
2023/01/03 04:51:54;;;;;;;4.33;2.60;;;8.30;99.90;;;;;;5051624;28;20577;-74
2023/01/03 04:54:40;;;;;;;5.80;2.40;;;8.20;99.90;;;;;;5050433;28;20459;-74
2023/01/03 04:57:25;;;;;;;3.70;3.30;;;8.10;99.90;;;;;;5049056;28;20513;-75
2023/01/03 05:00:12;;;;;;;3.67;3.17;;;8.20;99.90;;;;;;5044456;28;20502;-74
2023/01/03 05:02:59;;;;;;;5.53;4.03;;;8.20;99.90;;;;;;5048303;28;21039;-74
2023/01/03 05:05:44;;;;;;;4.23;2.90;;;8.20;99.90;;;;;;5046234;28;20434;-74
2023/01/03 05:08:30;;;;;;;3.40;2.50;;;8.30;99.90;;;;;;5046157;28;20443;-74
2023/01/03 05:11:16;;;;;;;3.17;2.50;;;8.30;99.90;;;;;;5044224;28;20490;-75
2023/01/03 05:14:02;;;;;;;7.00;3.10;;;8.30;99.90;;;;;;5055826;28;20512;-75
2023/01/03 05:16:47;;;;;;;4.63;2.93;;;8.30;99.90;;;;;;5051067;28;20463;-74
2023/01/03 05:25:48;;;;;;;4.03;2.67;;;8.30;99.90;;;;;;5056252;28;20504;-74
2023/01/03 05:25:49;;;;;;;4.00;2.80;;;8.20;99.90;;;;;;5045723;28;20503;-75
2023/01/03 05:28:35;;;;;;;4.33;2.70;;;8.10;99.90;;;;;;5041057;28;20533;-74
2023/01/03 05:31:21;;;;;;;4.50;2.83;;;8.10;99.90;;;;;;5047210;28;20451;-74
2023/01/03 05:34:06;;;;;;;4.57;3.03;;;8.00;99.90;;;;;;5052008;28;20466;-74
2023/01/03 05:36:53;;;;;;;3.30;3.00;;;8.00;99.90;;;;;;5050862;28;20510;-74
2023/01/03 05:39:39;;;;;;;9.00;3.13;;;8.00;99.90;;;;;;5051654;28;20455;-74
2023/01/03 05:42:25;;;;;;;3.07;2.77;;;8.10;99.90;;;;;;5049983;28;20810;-74
2023/01/03 05:45:11;;;;;;;3.13;2.70;;;8.20;99.90;;;;;;5047088;28;20463;-74
2023/01/03 05:47:57;;;;;;;3.37;2.73;;;8.30;99.90;;;;;;5042610;28;20448;-74
2023/01/03 05:50:43;;;;;;;8.00;2.63;;;8.30;99.90;;;;;;5050175;28;20710;-74
2023/01/03 05:53:29;;;;;;;7.07;2.77;;;8.40;99.90;;;;;;5048110;28;20463;-74
2023/01/03 05:56:15;;;;;;;4.27;3.67;;;8.50;99.90;;;;;;5047421;28;20447;-74
2023/01/03 05:59:01;;;;;;;6.95;3.22;;;8.50;99.90;;;;;;5052896;28;20443;-74
2023/01/03 06:01:46;;;;;;;3.67;2.70;;;8.30;99.90;;;;;;5050539;28;20204;-74
2023/01/03 06:04:32;;;;;;;2.90;2.60;;;8.20;99.90;;;;;;5052629;28;20486;-74
2023/01/03 06:07:18;;;;;;;3.77;3.20;;;8.10;99.90;;;;;;5046838;28;20475;-75
2023/01/03 06:10:06;;;;;;;5.83;2.50;;;8.10;99.90;;;;;;5051219;28;20518;-74
2023/01/03 06:12:52;;;;;;;3.50;2.33;;;7.90;99.90;;;;;;5052755;28;20552;-74
2023/01/03 06:15:37;;;;;;;4.87;3.00;;;7.80;99.90;;;;;;5052383;28;20459;-74
2023/01/03 06:18:23;;;;;;;4.53;3.03;;;7.60;99.90;;;;;;5049156;28;20438;-74
2023/01/03 06:21:08;;;;;;;3.57;2.87;;;7.50;99.90;;;;;;5057265;28;20448;-74
2023/01/03 06:23:54;;;;;;;5.47;3.53;;;7.40;99.90;;;;;;5051371;28;20923;-74
2023/01/03 06:26:41;;;;;;;3.90;3.30;;;7.20;99.90;;;;;;5051754;28;20578;-74
2023/01/03 06:29:27;;;;;;;5.97;3.60;;;7.20;99.90;;;;;;5057954;28;20949;-74
2023/01/03 06:32:12;;;;;;;4.87;3.57;;;7.20;99.90;;;;;;5052803;28;20960;-74
2023/01/03 06:34:58;;;;;;;3.83;2.73;;;7.10;99.90;;;;;;5053726;28;20563;-74
2023/01/03 06:37:44;;;;;;;3.17;2.80;;;7.10;99.90;;;;;;5047536;28;20502;-74
2023/01/03 06:40:29;;;;;;;3.83;2.90;;;7.00;99.90;;;;;;5060766;28;20509;-74
2023/01/03 06:43:17;;;;;;;4.37;2.80;;;7.00;99.90;;;;;;5054230;28;21112;-74
2023/01/03 06:55:18;;;;;;;5.97;3.47;;;6.90;99.90;;;;;;5053051;28;20450;-74
2023/01/03 06:58:04;;;;;;;3.90;3.20;;;6.90;99.90;;;;;;5049914;28;20467;-74
2023/01/03 07:00:52;;;;;;;4.83;3.40;;;7.00;99.90;;;;;;5049841;28;20493;-74
2023/01/03 07:03:38;;;;;;;5.07;3.70;;;7.00;99.90;;;;;;5054403;28;20488;-74
2023/01/03 07:06:23;;;;;;;4.53;4.10;;;6.90;99.90;;;;;;5051952;28;21276;-74
2023/01/03 07:09:10;;;;;;;7.13;5.00;;;7.00;99.90;;;;;;5055345;28;20798;-74
2023/01/03 07:11:56;;;;;;;5.17;3.90;;;7.00;99.90;;;;;;5054193;28;20438;-74
2023/01/03 07:14:41;;;;;;;4.93;3.97;;;7.00;99.90;;;;;;5052702;28;20710;-73
2023/01/03 07:17:29;;;;;;;6.20;5.23;;;7.00;99.90;;;;;;5045548;28;20451;-75
2023/01/03 07:20:15;;;;;;;8.20;7.40;;;6.80;99.90;;;;;;5051688;28;20446;-74
2023/01/03 07:23:00;;;;;;;7.13;6.43;;;6.80;99.90;;;;;;5050164;28;20470;-73
2023/01/03 07:25:46;;;;;;;6.40;5.80;;;6.80;99.90;;;;;;5049545;28;21168;-75
2023/01/03 07:28:32;;;;;;;6.87;5.60;;;6.90;99.90;;;;;;5049123;28;20439;-73
2023/01/03 07:31:18;;;;;;;7.47;6.77;;;7.00;99.90;;;;;;5052207;28;20429;-74
2023/01/03 07:34:05;;;;;;;9.10;5.83;;;7.10;99.90;;;;;;5051566;28;20483;-73
2023/01/03 07:36:50;;;;;;;11.07;4.63;;;7.10;99.90;;;;;;5047617;28;20474;-73
2023/01/03 07:39:36;;;;;;;5.70;4.43;;;7.20;99.90;;;;;;5049032;28;20447;-74
2023/01/03 07:45:25;;;;;;;5.20;4.70;;;7.20;99.90;;;;;;5045589;28;20881;-73
2023/01/03 07:48:11;;;;;;;11.67;4.67;;;7.20;99.90;;;;;;5057622;28;20439;-73
2023/01/03 07:50:58;;;;;;;5.57;5.07;;;7.30;99.90;;;;;;5044928;28;20949;-74
2023/01/03 07:53:44;;;;;;;6.60;5.40;;;7.10;99.90;;;;;;5045488;28;20467;-75
2023/01/03 07:56:30;;;;;;;6.30;5.40;;;7.10;99.90;;;;;;5045417;28;20448;-77
2023/01/03 07:59:15;;;;;;;6.30;5.20;;;7.20;99.90;;;;;;5049883;28;20436;-75
2023/01/03 08:02:01;;;;;;;9.10;7.47;;;7.30;99.90;;;;;;5046218;28;20932;-74
2023/01/03 08:04:47;;;;;;;7.18;6.32;;;7.40;99.90;;;;;;5048695;28;20506;-74
2023/01/03 08:07:35;;;;;;;7.93;6.45;;;7.40;99.90;;;;;;5051858;28;20205;-74
2023/01/03 08:13:24;;;;;;;15.00;9.27;;;7.30;99.90;;;;;;5050517;28;21014;-75
2023/01/03 08:16:12;;;;;;;10.17;7.73;;;7.40;99.90;;;;;;5044922;28;20563;-73
2023/01/03 08:18:58;;;;;;;12.67;9.03;;;7.30;99.90;;;;;;5048789;28;20455;-74
2023/01/03 08:21:44;;;;;;;9.90;8.20;;;7.30;99.90;;;;;;5046987;28;20466;-74
2023/01/03 08:24:31;;;;;;;9.57;7.73;;;7.20;99.90;;;;;;5048799;28;21016;-73
2023/01/03 08:27:16;;;;;;;9.27;6.87;;;7.20;99.90;;;;;;5049940;28;20417;-73
2023/01/03 08:30:05;;;;;;;8.50;7.10;;;7.10;99.90;;;;;;5053285;28;20849;-73
2023/01/03 08:32:51;;;;;;;10.30;6.60;;;7.10;99.90;;;;;;5053770;28;20546;-75
2023/01/03 08:35:39;;;;;;;8.50;6.67;;;7.10;99.90;;;;;;5043040;28;20571;-73
2023/01/03 08:38:28;;;;;;;9.60;7.33;;;7.10;99.90;;;;;;5052510;28;20582;-74
2023/01/03 08:41:20;;;;;;;8.73;6.47;;;7.00;99.90;;;;;;5044929;28;20908;-74
2023/01/03 08:44:08;;;;;;;9.70;7.47;;;7.10;99.90;;;;;;5049463;28;20495;-77
2023/01/03 08:46:57;;;;;;;9.70;6.67;;;6.90;99.90;;;;;;5048812;28;20456;-75
2023/01/03 08:49:43;;;;;;;11.73;9.93;;;6.80;99.90;;;;;;5045472;28;20448;-73
2023/01/03 08:52:29;;;;;;;10.20;6.60;;;6.80;99.90;;;;;;5045229;28;20452;-73
2023/01/03 08:55:15;;;;;;;7.63;6.40;;;6.80;99.90;;;;;;5054981;28;20435;-73
2023/01/03 08:58:02;;;;;;;5.90;5.30;;;6.80;99.90;;;;;;5046322;28;20438;-73
2023/01/03 09:00:48;;;;;;;9.33;7.17;;;6.90;99.90;;;;;;5042397;28;20506;-73
2023/01/03 09:03:33;;;;;;;4.83;3.77;;;6.90;99.90;;;;;;5058155;28;20435;-75
2023/01/03 09:06:19;;;;;;;5.00;4.50;;;6.90;99.90;;;;;;5052524;28;20459;-73
2023/01/03 09:09:05;;;;;;;9.37;4.63;;;7.00;99.90;;;;;;5055849;28;20461;-73
2023/01/03 09:11:50;;;;;;;7.87;5.53;;;7.00;99.90;;;;;;5049987;28;20534;-72
2023/01/03 09:14:37;;;;;;;7.10;5.93;;;7.00;99.90;;;;;;5050290;28;20981;-72
2023/01/03 09:17:24;;;;;;;6.57;5.87;;;6.90;99.90;;;;;;5046782;28;20411;-73
2023/01/03 09:20:11;;;;;;;6.97;5.63;;;6.70;99.90;;;;;;5055454;28;20575;-72
2023/01/03 09:22:56;;;;;;;6.77;5.90;;;6.70;99.90;;;;;;5054805;28;20442;-72
2023/01/03 09:25:43;;;;;;;8.37;6.30;;;6.70;99.90;;;;;;5046526;28;20862;-72
2023/01/03 09:28:28;;;;;;;7.43;6.23;;;6.80;99.90;;;;;;5045862;28;20976;-72
2023/01/03 09:31:15;;;;;;;9.53;5.77;;;6.90;99.90;;;;;;5046877;28;20470;-72
2023/01/03 09:34:03;;;;;;;9.43;8.43;;;7.00;99.90;;;;;;5039670;28;20454;-73
2023/01/03 09:36:48;;;;;;;12.40;11.03;;;7.00;99.90;;;;;;5047272;28;20452;-72
2023/01/03 09:39:34;;;;;;;12.73;10.53;;;7.10;99.90;;;;;;5047821;28;20451;-73
2023/01/03 09:45:28;;;;;;;10.57;8.10;;;7.10;99.90;;;;;;5046284;28;21065;-72
2023/01/03 09:48:19;;;;;;;10.20;8.77;;;7.20;99.90;;;;;;5045735;28;20459;-73
2023/01/03 10:03:42;;;;;;;9.90;8.90;;;7.20;99.90;;;;;;5045977;28;20439;-74
2023/01/03 10:03:51;;;;;;;11.30;8.50;;;7.50;99.90;;;;;;5050932;28;20486;-73
2023/01/03 10:06:49;;;;;;;16.03;9.20;;;7.60;99.90;;;;;;5055812;28;20459;-73
2023/01/03 10:09:44;;;;;;;15.37;9.30;;;7.50;99.90;;;;;;5070376;28;20910;-73
2023/01/03 10:12:39;;;;;;;17.60;9.33;;;7.60;99.90;;;;;;5060947;28;20427;-73
2023/01/03 10:15:34;;;;;;;12.73;8.97;;;7.70;99.90;;;;;;5061919;28;20463;-73
2023/01/03 10:18:38;;;;;;;10.47;6.90;;;7.80;99.90;;;;;;5058635;28;20535;-73
2023/01/03 10:21:38;;;;;;;8.67;6.40;;;8.10;99.90;;;;;;5050955;28;20419;-75
2023/01/03 10:24:26;;;;;;;7.93;6.80;;;8.20;99.90;;;;;;5055596;28;20447;-74
2023/01/03 10:27:17;;;;;;;8.10;5.60;;;8.30;99.90;;;;;;5060124;28;20819;-73
2023/01/03 10:30:06;;;;;;;8.83;6.23;;;8.50;99.90;;;;;;5062124;28;20514;-75
2023/01/03 10:33:08;;;;;;;6.00;4.70;;;8.80;99.90;;;;;;5068069;28;20453;-73
2023/01/03 10:35:55;;;;;;;7.20;4.37;;;9.20;99.90;;;;;;5048609;28;20533;-74
2023/01/03 10:38:43;;;;;;;5.43;3.83;;;9.70;99.90;;;;;;5067436;28;20430;-74
2023/01/03 10:41:33;;;;;;;4.17;3.70;;;10.20;99.90;;;;;;5051124;28;20427;-74
2023/01/03 10:44:24;;;;;;;5.00;2.90;;;10.80;99.90;;;;;;5051979;28;20582;-74
2023/01/03 10:47:16;;;;;;;5.00;2.70;;;11.00;99.90;;;;;;5058834;28;21045;-74
2023/01/03 10:50:06;;;;;;;3.27;2.60;;;11.20;99.90;;;;;;5053986;28;20425;-75
2023/01/03 10:52:58;;;;;;;4.63;2.50;;;11.50;99.90;;;;;;5066394;28;20540;-74
2023/01/03 10:55:51;;;;;;;4.50;2.40;;;11.70;99.90;;;;;;5052775;28;20448;-73
2023/01/03 10:58:37;;;;;;;2.90;1.90;;;11.70;99.90;;;;;;5054693;28;20510;-74
2023/01/03 11:01:24;;;;;;;6.70;2.10;;;11.90;99.90;;;;;;5063011;28;20429;-73
2023/01/03 11:04:17;;;;;;;3.43;1.93;;;12.00;99.90;;;;;;5050853;28;20574;-74
2023/01/03 11:07:12;;;;;;;4.20;2.07;;;12.20;99.90;;;;;;5055846;28;20486;-73
2023/01/03 11:09:58;;;;;;;6.57;2.60;;;12.40;99.90;;;;;;5051623;28;20444;-74
2023/01/03 11:12:46;;;;;;;5.03;2.63;;;12.40;99.90;;;;;;5060213;28;20405;-73
2023/01/03 11:15:37;;;;;;;9.00;2.87;;;12.30;99.90;;;;;;5048863;28;20496;-73
2023/01/03 11:18:24;;;;;;;4.60;2.37;;;12.10;99.90;;;;;;5054521;28;20386;-73
2023/01/03 11:21:13;;;;;;;5.10;2.63;;;12.10;99.90;;;;;;5053665;28;20428;-74
2023/01/03 11:24:08;;;;;;;3.70;2.43;;;12.00;99.90;;;;;;5051558;28;20455;-76
2023/01/03 11:27:03;;;;;;;4.10;2.83;;;11.90;99.90;;;;;;5053418;28;20459;-74
2023/01/03 11:30:06;;;;;;;7.13;3.00;;;11.90;99.90;;;;;;5050346;28;20431;-74
2023/01/03 11:33:12;;;;;;;4.70;2.70;;;11.90;99.90;;;;;;5060137;28;20462;-73
2023/01/03 11:36:14;;;;;;;3.17;2.40;;;11.80;99.90;;;;;;5058028;28;20412;-74
2023/01/03 11:39:15;;;;;;;4.83;2.10;;;11.70;99.90;;;;;;5060805;28;21018;-74
2023/01/03 11:42:25;;;;;;;6.33;1.90;;;11.50;99.90;;;;;;5056067;28;20435;-74
2023/01/03 11:45:36;;;;;;;5.03;2.00;;;11.30;99.90;;;;;;5051333;28;20940;-74
2023/01/03 11:48:45;;;;;;;3.63;1.80;;;11.10;99.90;;;;;;5061405;28;20419;-74
2023/01/03 11:51:38;;;;;;;2.20;1.67;;;11.10;99.90;;;;;;5050703;28;20554;-74
2023/01/03 11:54:42;;;;;;;4.33;2.17;;;11.00;99.90;;;;;;5053642;28;20869;-73
2023/01/03 11:57:37;;;;;;;5.23;1.67;;;10.90;99.90;;;;;;5064220;28;20421;-74
2023/01/03 12:00:34;;;;;;;2.90;1.80;;;11.00;99.90;;;;;;5063724;28;20405;-73
2023/01/03 12:03:31;;;;;;;8.73;2.20;;;11.00;99.90;;;;;;5045930;28;20570;-74
2023/01/03 12:06:21;;;;;;;3.00;2.03;;;11.00;99.90;;;;;;5057014;28;20467;-74
2023/01/03 12:09:19;;;;;;;6.30;2.40;;;10.90;99.90;;;;;;5056084;28;20432;-73
2023/01/03 12:12:22;;;;;;;5.30;2.70;;;10.80;99.90;;;;;;5056804;28;21002;-74
2023/01/03 12:15:18;;;;;;;4.30;2.50;;;10.80;99.90;;;;;;5049639;28;20651;-75
2023/01/03 12:18:12;;;;;;;3.07;2.70;;;10.80;99.90;;;;;;5051677;28;20998;-73
2023/01/03 12:21:02;;;;;;;4.60;3.00;;;10.90;99.90;;;;;;5054363;28;20435;-74
2023/01/03 12:23:53;;;;;;;6.40;3.53;;;11.00;99.90;;;;;;5054785;28;20433;-74
2023/01/03 12:26:42;;;;;;;6.67;3.60;;;10.90;99.90;;;;;;5058682;28;20471;-75
2023/01/03 12:29:34;;;;;;;7.33;3.00;;;11.00;99.90;;;;;;5050389;28;20452;-74
2023/01/03 12:32:27;;;;;;;5.30;3.03;;;11.20;99.90;;;;;;5046574;28;20423;-74
2023/01/03 12:35:24;;;;;;;4.77;2.90;;;11.40;99.90;;;;;;5059849;28;20541;-73
2023/01/03 12:38:10;;;;;;;6.50;3.13;;;11.70;99.90;;;;;;5052444;28;20436;-74
2023/01/03 12:41:01;;;;;;;8.40;3.27;;;11.90;99.90;;;;;;5053539;28;20420;-74
2023/01/03 12:43:52;;;;;;;6.50;3.57;;;12.00;99.90;;;;;;5045536;28;20471;-73
2023/01/03 12:46:44;;;;;;;6.23;3.03;;;11.90;99.90;;;;;;5055739;28;20602;-74
2023/01/03 12:49:37;;;;;;;5.13;2.70;;;11.80;99.90;;;;;;5060716;28;20409;-74
2023/01/03 12:52:25;;;;;;;5.27;2.63;;;11.70;99.90;;;;;;5048310;28;20406;-73
2023/01/03 12:55:21;;;;;;;8.10;2.23;;;11.60;99.90;;;;;;5052560;28;20406;-74
2023/01/03 12:58:23;;;;;;;7.23;2.67;;;11.50;99.90;;;;;;5059671;28;20929;-73
2023/01/03 13:01:14;;;;;;;5.13;2.70;;;11.50;99.90;;;;;;5059104;28;20521;-74
2023/01/03 13:04:08;;;;;;;7.07;2.47;;;11.30;99.90;;;;;;5054977;28;20446;-74
2023/01/03 13:06:58;;;;;;;4.30;2.10;;;11.20;99.90;;;;;;5054515;28;20479;-73
2023/01/03 13:09:52;;;;;;;8.23;2.30;;;11.10;99.90;;;;;;5058649;28;20446;-74
2023/01/03 13:12:41;;;;;;;8.10;2.20;;;11.10;99.90;;;;;;5048546;28;20430;-74
2023/01/03 13:15:30;;;;;;;4.00;2.27;;;11.00;99.90;;;;;;5090334;22;20457;-73
2023/01/03 13:18:36;;;;;;;5.23;2.60;;;11.00;99.90;;;;;;5083789;28;20414;-72
2023/01/03 13:21:50;;;;;;;2.40;1.77;;;11.20;99.90;;;;;;5081488;28;20799;-74
2023/01/03 13:24:40;;;;;;;3.00;1.97;;;11.20;99.90;;;;;;5077358;28;20461;-72
2023/01/03 13:27:38;;;;;;;4.53;1.83;;;11.30;99.90;;;;;;5094719;28;21140;-72
2023/01/03 13:30:26;;;;;;;7.03;2.57;;;11.20;99.90;;;;;;5077898;28;20421;-72
2023/01/03 13:33:20;;;;;;;6.90;1.80;;;11.20;99.90;;;;;;5094626;28;20950;-73
2023/01/03 13:36:07;;;;;;;2.80;1.60;;;11.30;99.90;;;;;;5084952;28;20942;-71
2023/01/03 13:38:53;;;;;;;4.80;1.87;;;11.30;99.90;;;;;;5097140;28;20434;-72
2023/01/03 13:41:39;;;;;;;7.50;2.03;;;11.10;99.90;;;;;;5098609;28;20558;-72
2023/01/03 13:44:26;;;;;;;10.20;2.00;;;11.00;99.90;;;;;;5079097;28;20982;-71
2023/01/03 13:47:24;;;;;;;5.47;1.77;;;11.00;99.90;;;;;;5085167;28;21126;-75
2023/01/03 13:50:19;;;;;;;6.30;1.80;;;11.10;99.90;;;;;;5089038;28;20441;-72
2023/01/03 13:53:26;;;;;;;5.97;2.27;;;11.10;99.90;;;;;;5077204;28;20557;-72
2023/01/03 13:56:24;;;;;;;3.47;1.83;;;11.20;99.90;;;;;;5087141;28;20444;-72
2023/01/03 13:59:19;;;;;;;3.27;1.67;;;11.20;99.90;;;;;;5088163;28;20487;-74
2023/01/03 14:02:47;;;;;;;3.90;1.60;;;11.10;99.90;;;;;;5086025;28;20623;-72
2023/01/03 14:05:57;;;;;;;5.70;2.40;;;11.10;99.90;;;;;;5090510;28;20496;-71
2023/01/03 14:09:33;;;;;;;8.07;2.00;;;11.10;99.90;;;;;;5095581;28;20531;-72
2023/01/03 14:12:37;;;;;;;5.27;1.83;;;11.10;99.90;;;;;;4991664;28;20480;-73
2023/01/03 14:15:24;;;;;;;3.83;1.90;;;11.10;99.90;;;;;;5032705;28;20494;-72
2023/01/03 14:18:19;;;;;;;3.53;1.47;;;11.10;99.90;;;;;;5089431;28;20506;-73
2023/01/03 14:21:08;;;;;;;5.43;1.50;;;11.10;99.90;;;;;;5099768;28;20442;-71
2023/01/03 14:23:58;;;;;;;2.50;1.20;;;11.10;99.90;;;;;;5085883;28;20489;-72
2023/01/03 14:26:44;;;;;;;3.67;1.70;;;11.10;99.90;;;;;;5084913;28;20671;-73
2023/01/03 14:29:30;;;;;;;2.43;1.17;;;11.00;99.90;;;;;;5090161;28;20436;-72
2023/01/03 14:32:21;;;;;;;3.87;1.47;;;11.00;99.90;;;;;;5083093;28;20520;-73
2023/01/03 14:35:21;;;;;;;3.57;2.20;;;10.90;99.90;;;;;;5092956;28;20554;-72
2023/01/03 14:38:22;;;;;;;5.80;2.97;;;10.90;99.90;;;;;;5087640;28;20430;-73
2023/01/03 14:41:26;;;;;;;4.07;2.00;;;10.80;99.90;;;;;;5091113;28;20501;-72
2023/01/03 14:44:16;;;;;;;5.10;2.20;;;10.90;99.90;;;;;;5088588;28;20479;-72
2023/01/03 14:47:04;;;;;;;4.27;1.60;;;10.90;99.90;;;;;;5094548;28;20473;-72
2023/01/03 14:49:52;;;;;;;5.10;1.90;;;10.90;99.90;;;;;;5090673;28;20800;-73
2023/01/03 14:52:40;;;;;;;2.90;2.00;;;10.90;99.90;;;;;;5082415;28;20416;-73
2023/01/03 14:55:29;;;;;;;5.67;2.10;;;10.90;99.90;;;;;;5091932;28;21360;-74
2023/01/03 14:58:26;;;;;;;4.23;1.90;;;11.00;99.90;;;;;;5087328;28;20419;-72
2023/01/03 15:01:14;;;;;;;2.97;1.53;;;11.00;99.90;;;;;;5095158;28;20429;-74
2023/01/03 15:04:00;;;;;;;3.60;1.90;;;11.00;99.90;;;;;;5099624;28;20440;-72
2023/01/03 15:07:01;;;;;;;11.67;2.20;;;10.90;99.90;;;;;;5090310;28;20436;-75
2023/01/03 15:09:48;;;;;;;2.63;1.63;;;10.90;99.90;;;;;;5091427;28;20944;-73
2023/01/03 15:12:37;;;;;;;6.43;2.23;;;10.80;99.90;;;;;;5088426;28;20522;-73
2023/01/03 15:15:25;;;;;;;3.47;2.00;;;10.80;99.90;;;;;;5088894;28;20500;-74
2023/01/03 15:18:12;;;;;;;8.23;2.37;;;10.80;99.90;;;;;;5093719;28;20948;-73
2023/01/03 15:21:00;;;;;;;7.00;2.27;;;10.80;99.90;;;;;;5090461;28;20453;-73
2023/01/03 15:23:47;;;;;;;5.17;1.93;;;10.70;99.90;;;;;;5090150;28;20596;-73
2023/01/03 15:26:40;;;;;;;2.97;1.70;;;10.70;99.90;;;;;;5087792;28;20424;-74
2023/01/03 15:29:44;;;;;;;6.43;2.10;;;10.60;99.90;;;;;;5089001;28;20442;-72
2023/01/03 15:32:30;;;;;;;4.50;1.87;;;10.60;99.90;;;;;;5085208;28;20445;-73
2023/01/03 15:35:20;;;;;;;4.73;1.90;;;10.60;99.90;;;;;;5090502;28;20470;-73
2023/01/03 15:38:13;;;;;;;4.63;2.47;;;10.60;99.90;;;;;;5087238;28;20441;-72
2023/01/03 15:40:59;;;;;;;4.53;2.37;;;10.50;99.90;;;;;;5086981;28;20438;-72
2023/01/03 15:43:43;;;;;;;5.03;2.40;;;10.60;99.90;;;;;;5090301;28;20469;-71
2023/01/03 15:46:30;;;;;;;6.33;2.20;;;10.60;99.90;;;;;;5091234;28;20434;-74
2023/01/03 15:49:19;;;;;;;6.90;2.73;;;10.60;99.90;;;;;;5090331;28;20482;-73
2023/01/03 15:52:05;;;;;;;6.77;2.33;;;10.70;99.90;;;;;;5084754;28;20445;-72